Terminal Aerodrome Forecast
Issued by NWS Honolulu, HI

Home | Current Version | Previous Version | Text Only | Print | Product List | Glossary On
Versions: 1 2 3 4 5 6 7 8 9 10 11 12 13 14 15 16 17 18 19 20 21 22 23 24 25 26 27 28
000
FTPA31 PHFO 010544
TAFHNL
TAF
PHNL 010544Z 0106/0212 09009KT P6SM VCSH SCT035 SCT070 BKN110
     FM012000 13012KT P6SM VCSH SCT025 SCT050
     FM020600 09006KT P6SM FEW025 SCT050=

USA.gov is the U.S. government's official web portal to all federal, state and local government web resources and services.